University, Washington
Current Conditions -  °F | °C
As of 3:15 PM on Tuesday 27 Jan 2015 (Local Time) from KBFI Reporting Station
Haze Haze  
Wind Chill: 54°   Ceiling: 1800
Heat Index: 54°   Visibility: 3mi
Dew Point: 48°   Wind: 5mph
Humidity: 82%   Direction: 170°S
Pressure: 30.11"   Gusts: NA
Location:  47.6619°N, 122.296°W
Report Text: KBFI 272315Z 17004KT 3SM HZ SCT010 OVC018 12/09 A3011 RMK AO2
Loading
Personal Weather Stations






























Interactive Weather Map New forecast layout! Learn more

10-Day Weather Forecast

Advertisements
Track Severe Weather on mobile